Terminal Aerodrome Forecast
Issued by NWS

Home | Current Version | Previous Version | Text Only | Print | Product List | Glossary On
Versions: 1 2 3 4 5 6 7 8 9 10 11 12 13 14 15 16 17 18 19 20 21 22 23 24 25 26 27 28 29 30 31 32 33 34 35 36 37
093
FTUS42 KCAE 211459 AAA
TAFOGB
TAF AMD
KOGB 211459Z 2115/2212 18005KT P6SM OVC007
      TEMPO 2116/2117 -SHRA BKN015
     FM211700 18006KT P6SM BKN015
     FM211900 18006KT P6SM SCT035
     FM220300 17004KT 4SM BR OVC015
     FM220600 15003KT 1/2SM FG OVC003=

USA.gov is the U.S. government's official web portal to all federal, state and local government web resources and services.